Catalina Jet — WDD8449 — position and weather

sailwx.info

Track history (hours):
 
Tides and Currents Weather Stations Pressure Air Temp Water Temp Dewpoint Dewpoint Depression Visibility Wind Speed Wind Dir Waves Ship Positions

Catalina Jet

Owner: RGWT, INC, San Pedro, CA. More information available from US FCC via Universal Licensing System and Coast Guard Vessel Documentation Center.

Last reported at 2017-Sep-24 03:30 UTC. Time now 2017-Sep-24 03:38 UTC.
Position N 33°45' W 118°12'.

Length 42 m; draft 3.7 m.

Type: High speed craft. MMSI: 367008510.

Date/timePositionNaut miles runAvg speedWind from/ knotsBaromVisibWave heightAir tempDewpointWater temp
2017-Sep-24 03:30N 33°45' W 118°12'1224.8
2017-Sep-24 03:00N 33°33' W 118°13'1427.0
2017-Sep-24 02:30N 33°21' W 118°19'0 0.1
2017-Sep-24 02:00N 33°21' W 118°19'918.5
2017-Sep-24 01:30N 33°29' W 118°15'1530.3
2017-Sep-24 01:01N 33°44' W 118°11'2 4.1
2017-Sep-24 00:30N 33°46' W 118°12'0 0.0
2017-Sep-24 00:00N 33°46' W 118°12'714.6
2017-Sep-23 23:31N 33°39' W 118°12'1530.2
2017-Sep-23 23:00N 33°24' W 118°18'4 7.4
2017-Sep-23 22:30N 33°21' W 118°19'2 3.2
2017-Sep-23 22:00N 33°22' W 118°19'1530.1
2017-Sep-23 21:30N 33°37' W 118°13'917.1
2017-Sep-23 20:58N 33°46' W 118°12'0 0.0
2017-Sep-23 20:25N 33°46' W 118°12'1 1.4
2017-Sep-23 19:38N 33°45' W 118°11'1 0.0
2017-Sep-21 20:18N 33°45' W 118°12'0 0.0
2017-Sep-21 20:00N 33°45' W 118°12'0 0.0
2017-Sep-21 19:28N 33°45' W 118°12'0 0.0
2017-Sep-21 19:00N 33°45' W 118°12'0 0.0
2017-Sep-21 18:28N 33°45' W 118°12'0 0.0
2017-Sep-21 17:58N 33°45' W 118°12'0 0.0
2017-Sep-21 17:29N 33°45' W 118°12'0 0.0
2017-Sep-21 17:00N 33°45' W 118°12'0 0.0
2017-Sep-21 16:29N 33°45' W 118°12'0 0.0
2017-Sep-21 16:00N 33°45' W 118°12'0 0.0
2017-Sep-21 15:29N 33°45' W 118°12'0 0.0
2017-Sep-21 14:58N 33°45' W 118°12'0 0.0
2017-Sep-21 14:11N 33°45' W 118°12'0 0.0
2017-Sep-21 13:50N 33°45' W 118°12'0 0.0
2017-Sep-21 13:22N 33°45' W 118°12'0 0.0
2017-Sep-21 12:56N 33°45' W 118°12'  
2017-Sep-18 05:47N 33°45' W 118°12'0 1.4
2017-Sep-18 05:30N 33°46' W 118°12'0 0.5
2017-Sep-18 04:59N 33°46' W 118°12'0 0.0
2017-Sep-18 04:27N 33°46' W 118°12'0 0.0
2017-Sep-18 03:59N 33°46' W 118°12'2 3.6
2017-Sep-18 03:29N 33°44' W 118°11'1827.1
2017-Sep-18 02:48N 33°27' W 118°17'611.2
2017-Sep-18 02:15N 33°21' W 118°19'0 0.9
2017-Sep-18 01:45N 33°21' W 118°19'730.2
2017-Sep-18 01:31N 33°28' W 118°16'1630.4
2017-Sep-18 00:58N 33°44' W 118°11'2 4.1
2017-Sep-18 00:27N 33°46' W 118°12'0 0.5
2017-Sep-17 23:57N 33°46' W 118°12'1926.0
2017-Sep-17 23:12N 33°27' W 118°17'6 5.4
2017-Sep-17 22:03N 33°21' W 118°19'225.5
2017-Sep-17 21:59N 33°23' W 118°18'1530.4
2017-Sep-17 21:30N 33°37' W 118°13'918.5
2017-Sep-17 21:00N 33°46' W 118°12'0 0.0
2017-Sep-17 20:30N 33°46' W 118°12'0 0.1
2017-Sep-17 20:00N 33°46' W 118°12'1219.8
2017-Sep-17 19:24N 33°34' W 118°13'1229.8
2017-Sep-17 18:59N 33°22' W 118°18'1 1.3
2017-Sep-17 17:57N 33°21' W 118°19'1927.4
2017-Sep-17 17:15N 33°39' W 118°12'617.7
2017-Sep-17 16:53N 33°46' W 118°12'0 0.2
2017-Sep-17 15:53N 33°46' W 118°12'615.5
2017-Sep-17 15:28N 33°39' W 118°11'1431.3
2017-Sep-17 15:00N 33°26' W 118°17'5 6.2
2017-Sep-17 14:07N 33°21' W 118°19'110.7
2017-Sep-17 14:00N 33°22' W 118°19'2523.6
2017-Sep-17 12:58N 33°46' W 118°12'0 0.0
2017-Sep-17 12:25N 33°46' W 118°12'0 0.0
2017-Sep-17 11:47N 33°46' W 118°12'0 0.0
2017-Sep-17 11:20N 33°46' W 118°12'0 0.0
2017-Sep-17 10:23N 33°46' W 118°12'0 0.0
2017-Sep-17 09:52N 33°46' W 118°12'0 0.0
2017-Sep-17 09:23N 33°46' W 118°12'0 0.0
2017-Sep-17 09:00N 33°46' W 118°12'0 0.0
2017-Sep-17 08:30N 33°46' W 118°12'0 0.0
2017-Sep-17 07:56N 33°46' W 118°12'0 0.0
2017-Sep-17 07:21N 33°46' W 118°12'0 0.0
2017-Sep-17 06:56N 33°46' W 118°12'0 0.0
2017-Sep-17 06:29N 33°46' W 118°12'0 0.0
2017-Sep-17 05:46N 33°46' W 118°12'0 0.0
2017-Sep-17 05:28N 33°46' W 118°12'0 0.0
2017-Sep-17 04:59N 33°46' W 118°12'0 0.0
2017-Sep-17 04:27N 33°46' W 118°12'0 0.0
2017-Sep-17 04:00N 33°46' W 118°12'3 5.6
2017-Sep-17 03:30N 33°43' W 118°11'2417.1
2017-Sep-17 02:08N 33°21' W 118°19'0 0.0
2017-Sep-17 02:00N 33°21' W 118°19'1823.9
2017-Sep-17 01:14N 33°38' W 118°13'729.1
2017-Sep-17 01:00N 33°44' W 118°11'2 2.6
2017-Sep-17 00:24N 33°46' W 118°12'0 0.0
2017-Sep-17 00:00N 33°46' W 118°12'918.4
2017-Sep-16 23:30N 33°37' W 118°13'1715.2
2017-Sep-16 22:23N 33°21' W 118°19'410.4
2017-Sep-16 22:00N 33°25' W 118°18'1429.3
2017-Sep-16 21:30N 33°38' W 118°12'815.1
2017-Sep-16 21:00N 33°46' W 118°12'0 0.0
2017-Sep-16 20:30N 33°46' W 118°12'0 0.0
2017-Sep-16 20:00N 33°46' W 118°12'510.4
2017-Sep-16 19:30N 33°41' W 118°11'1931.4
2017-Sep-16 18:54N 33°23' W 118°18'2 2.2
2017-Sep-16 18:05N 33°21' W 118°19'223.6
2017-Sep-16 18:00N 33°23' W 118°19'1728.8
2017-Sep-16 17:26N 33°38' W 118°13'7 9.8
2017-Sep-16 16:40N 33°46' W 118°12'0 0.0
2017-Sep-16 16:28N 33°46' W 118°12'0 0.0
2017-Sep-16 15:58N 33°46' W 118°12'814.2
2017-Sep-16 15:25N 33°38' W 118°12'1731.4
2017-Sep-16 14:52N 33°22' W 118°18'2 4.2
2017-Sep-16 14:30N 33°21' W 118°19'610.7
2017-Sep-16 13:58N 33°26' W 118°18'1429.7
2017-Sep-16 13:30N 33°39' W 118°13'612.1
2017-Sep-16 12:59N 33°46' W 118°12'0 0.0
2017-Sep-16 12:21N 33°46' W 118°12'0 0.0
2017-Sep-16 11:51N 33°46' W 118°12'0 0.0
2017-Sep-16 11:29N 33°46' W 118°12'0 0.0
2017-Sep-16 10:54N 33°46' W 118°12'0 0.0
2017-Sep-16 10:14N 33°46' W 118°12'0 0.0
2017-Sep-16 09:54N 33°46' W 118°12'0 0.0
2017-Sep-16 09:30N 33°46' W 118°12'0 0.0
2017-Sep-16 08:54N 33°46' W 118°12'0 0.0
2017-Sep-16 07:52N 33°46' W 118°12'0 0.0
2017-Sep-16 07:29N 33°46' W 118°12'0 0.0
2017-Sep-16 07:00N 33°46' W 118°12'0 0.0
2017-Sep-16 06:29N 33°46' W 118°12'0 0.0
2017-Sep-16 05:58N 33°46' W 118°12'0 0.0
2017-Sep-16 05:29N 33°46' W 118°12'0 0.0
2017-Sep-16 05:00N 33°46' W 118°12'0 0.0
2017-Sep-16 04:30N 33°46' W 118°12'0 0.0
2017-Sep-16 04:00N 33°46' W 118°12'1 1.2
2017-Sep-16 03:30N 33°45' W 118°11'2427.0
2017-Sep-16 02:37N 33°22' W 118°19'2 2.2
2017-Sep-16 01:50N 33°21' W 118°19'1828.6
2017-Sep-16 01:13N 33°38' W 118°13'630.0
2017-Sep-16 01:00N 33°44' W 118°11'2 4.5
2017-Sep-16 00:30N 33°46' W 118°12'0 0.0
2017-Sep-15 23:59N 33°46' W 118°12'817.2
2017-Sep-15 23:30N 33°37' W 118°12'1529.8
2017-Sep-15 23:00N 33°24' W 118°18'3 3.6
2017-Sep-15 22:11N 33°21' W 118°19'1529.1
2017-Sep-15 21:41N 33°35' W 118°13'630.6
2017-Sep-15 21:30N 33°40' W 118°12'611.5
2017-Sep-15 21:00N 33°46' W 118°12'0 0.0
2017-Sep-15 20:30N 33°46' W 118°12'1 1.4
2017-Sep-15 19:59N 33°45' W 118°11'1224.6
2017-Sep-15 19:30N 33°33' W 118°13'1311.2
2017-Sep-15 18:17N 33°21' W 118°19'1426.5
2017-Sep-15 17:46N 33°34' W 118°13'828.1
2017-Sep-15 17:30N 33°41' W 118°11'5 9.5
2017-Sep-15 17:00N 33°46' W 118°12'0 0.0
2017-Sep-15 16:29N 33°46' W 118°12'0 0.0
2017-Sep-15 16:00N 33°46' W 118°12'714.1
2017-Sep-15 15:30N 33°39' W 118°11'1630.7
2017-Sep-15 14:58N 33°23' W 118°18'3 6.2
2017-Sep-15 14:29N 33°21' W 118°19'2 4.5
2017-Sep-15 14:00N 33°23' W 118°18'1530.7
2017-Sep-15 13:30N 33°37' W 118°13'915.1
2017-Sep-15 12:56N 33°46' W 118°12'0 0.0
2017-Sep-15 12:28N 33°46' W 118°12'0 0.0
2017-Sep-15 11:52N 33°46' W 118°12'0 0.0
2017-Sep-15 11:27N 33°46' W 118°12'0 0.0
2017-Sep-15 10:55N 33°46' W 118°12'0 0.0
2017-Sep-15 10:30N 33°46' W 118°12'0 0.0
2017-Sep-15 10:00N 33°46' W 118°12'0 0.0
2017-Sep-15 09:28N 33°46' W 118°12'0 0.0
2017-Sep-15 09:00N 33°46' W 118°12'0 0.0
2017-Sep-15 08:27N 33°46' W 118°12'0 0.0
2017-Sep-15 08:00N 33°46' W 118°12'0 0.0
2017-Sep-15 07:29N 33°46' W 118°12'0 0.0
2017-Sep-15 06:55N 33°46' W 118°12'0 0.0
2017-Sep-15 06:24N 33°46' W 118°12'0 0.0
2017-Sep-15 05:58N 33°46' W 118°12'0 0.0
2017-Sep-15 05:27N 33°46' W 118°12'0 0.0
2017-Sep-15 05:00N 33°46' W 118°12'0 0.0
2017-Sep-15 04:27N 33°46' W 118°12'0 0.0
2017-Sep-15 03:53N 33°46' W 118°12'2 4.8
2017-Sep-15 03:30N 33°44' W 118°11'1529.4
2017-Sep-15 03:00N 33°30' W 118°16'1018.9
2017-Sep-15 02:29N 33°21' W 118°19'0 0.1
2017-Sep-15 02:00N 33°21' W 118°19'1326.2
2017-Sep-15 01:29N 33°33' W 118°14'1222.2
2017-Sep-15 00:56N 33°46' W 118°12'0 0.8
2017-Sep-15 00:29N 33°46' W 118°12'0 0.0
2017-Sep-15 00:00N 33°46' W 118°12'918.5
2017-Sep-14 23:30N 33°37' W 118°13'1713.5
2017-Sep-14 22:16N 33°21' W 118°19'1524.1
2017-Sep-14 21:38N 33°35' W 118°14'428.7
2017-Sep-14 21:30N 33°39' W 118°13'714.3
2017-Sep-14 21:00N 33°46' W 118°12'0 0.0
2017-Sep-14 20:30N 33°46' W 118°12'0 0.0
2017-Sep-14 20:01N 33°46' W 118°12'2618.6
2017-Sep-14 18:37N 33°21' W 118°19'0 0.0
2017-Sep-14 18:11N 33°21' W 118°19'319.7
2017-Sep-14 18:00N 33°24' W 118°18'1529.7
2017-Sep-14 17:31N 33°38' W 118°13'815.4
2017-Sep-14 17:00N 33°46' W 118°12'0 0.2
2017-Sep-14 16:30N 33°46' W 118°12'0 0.0
2017-Sep-14 15:59N 33°46' W 118°12'611.5
2017-Sep-14 15:30N 33°40' W 118°11'1830.3
2017-Sep-14 14:55N 33°24' W 118°18'3 4.0
2017-Sep-14 14:08N 33°21' W 118°19'1 8.4
2017-Sep-14 14:00N 33°22' W 118°19'1630.3
2017-Sep-14 13:28N 33°37' W 118°13'914.2
2017-Sep-14 12:52N 33°46' W 118°12'0 0.0
2017-Sep-14 12:30N 33°46' W 118°12'0 0.0
2017-Sep-14 11:59N 33°46' W 118°12'0 0.0
2017-Sep-14 11:29N 33°46' W 118°12'0 0.0
2017-Sep-14 11:00N 33°46' W 118°12'0 0.0
2017-Sep-14 10:23N 33°46' W 118°12'1 0.1
2017-Sep-14 03:51N 33°45' W 118°11'823.1
2017-Sep-14 03:30N 33°37' W 118°12'  
Track history (hours):
 
Tides and Currents Weather Stations Pressure Air Temp Water Temp Dewpoint Dewpoint Depression Visibility Wind Speed Wind Dir Waves Ship Positions

Catalina Jet

Owner: RGWT, INC, San Pedro, CA. More information available from US FCC via Universal Licensing System and Coast Guard Vessel Documentation Center.

Last reported at 2017-Sep-24 03:30 UTC. Time now 2017-Sep-24 03:38 UTC.
Position N 33°45' W 118°12'.

Length 42 m; draft 3.7 m.

Type: High speed craft. MMSI: 367008510.

Date/timePositionNaut miles runAvg speedWind from/ knotsBaromVisibWave heightAir tempDewpointWater temp
2017-Sep-24 03:30N 33°45' W 118°12'1224.8
2017-Sep-24 03:00N 33°33' W 118°13'1427.0
2017-Sep-24 02:30N 33°21' W 118°19'0 0.1
2017-Sep-24 02:00N 33°21' W 118°19'918.5
2017-Sep-24 01:30N 33°29' W 118°15'1530.3
2017-Sep-24 01:01N 33°44' W 118°11'2 4.1
2017-Sep-24 00:30N 33°46' W 118°12'0 0.0
2017-Sep-24 00:00N 33°46' W 118°12'714.6
2017-Sep-23 23:31N 33°39' W 118°12'1530.2
2017-Sep-23 23:00N 33°24' W 118°18'4 7.4
2017-Sep-23 22:30N 33°21' W 118°19'2 3.2
2017-Sep-23 22:00N 33°22' W 118°19'1530.1
2017-Sep-23 21:30N 33°37' W 118°13'917.1
2017-Sep-23 20:58N 33°46' W 118°12'0 0.0
2017-Sep-23 20:25N 33°46' W 118°12'1 1.4
2017-Sep-23 19:38N 33°45' W 118°11'1 0.0
2017-Sep-21 20:18N 33°45' W 118°12'0 0.0
2017-Sep-21 20:00N 33°45' W 118°12'0 0.0
2017-Sep-21 19:28N 33°45' W 118°12'0 0.0
2017-Sep-21 19:00N 33°45' W 118°12'0 0.0
2017-Sep-21 18:28N 33°45' W 118°12'0 0.0
2017-Sep-21 17:58N 33°45' W 118°12'0 0.0
2017-Sep-21 17:29N 33°45' W 118°12'0 0.0
2017-Sep-21 17:00N 33°45' W 118°12'0 0.0
2017-Sep-21 16:29N 33°45' W 118°12'0 0.0
2017-Sep-21 16:00N 33°45' W 118°12'0 0.0
2017-Sep-21 15:29N 33°45' W 118°12'0 0.0
2017-Sep-21 14:58N 33°45' W 118°12'0 0.0
2017-Sep-21 14:11N 33°45' W 118°12'0 0.0
2017-Sep-21 13:50N 33°45' W 118°12'0 0.0
2017-Sep-21 13:22N 33°45' W 118°12'0 0.0
2017-Sep-21 12:56N 33°45' W 118°12'  
2017-Sep-18 05:47N 33°45' W 118°12'0 1.4
2017-Sep-18 05:30N 33°46' W 118°12'0 0.5
2017-Sep-18 04:59N 33°46' W 118°12'0 0.0
2017-Sep-18 04:27N 33°46' W 118°12'0 0.0
2017-Sep-18 03:59N 33°46' W 118°12'2 3.6
2017-Sep-18 03:29N 33°44' W 118°11'1827.1
2017-Sep-18 02:48N 33°27' W 118°17'611.2
2017-Sep-18 02:15N 33°21' W 118°19'0 0.9
2017-Sep-18 01:45N 33°21' W 118°19'730.2
2017-Sep-18 01:31N 33°28' W 118°16'1630.4
2017-Sep-18 00:58N 33°44' W 118°11'2 4.1
2017-Sep-18 00:27N 33°46' W 118°12'0 0.5
2017-Sep-17 23:57N 33°46' W 118°12'1926.0
2017-Sep-17 23:12N 33°27' W 118°17'6 5.4
2017-Sep-17 22:03N 33°21' W 118°19'225.5
2017-Sep-17 21:59N 33°23' W 118°18'1530.4
2017-Sep-17 21:30N 33°37' W 118°13'918.5
2017-Sep-17 21:00N 33°46' W 118°12'0 0.0
2017-Sep-17 20:30N 33°46' W 118°12'0 0.1
2017-Sep-17 20:00N 33°46' W 118°12'1219.8
2017-Sep-17 19:24N 33°34' W 118°13'1229.8
2017-Sep-17 18:59N 33°22' W 118°18'1 1.3
2017-Sep-17 17:57N 33°21' W 118°19'1927.4
2017-Sep-17 17:15N 33°39' W 118°12'617.7
2017-Sep-17 16:53N 33°46' W 118°12'0 0.2
2017-Sep-17 15:53N 33°46' W 118°12'615.5
2017-Sep-17 15:28N 33°39' W 118°11'1431.3
2017-Sep-17 15:00N 33°26' W 118°17'5 6.2
2017-Sep-17 14:07N 33°21' W 118°19'110.7
2017-Sep-17 14:00N 33°22' W 118°19'2523.6
2017-Sep-17 12:58N 33°46' W 118°12'0 0.0
2017-Sep-17 12:25N 33°46' W 118°12'0 0.0
2017-Sep-17 11:47N 33°46' W 118°12'0 0.0
2017-Sep-17 11:20N 33°46' W 118°12'0 0.0
2017-Sep-17 10:23N 33°46' W 118°12'0 0.0
2017-Sep-17 09:52N 33°46' W 118°12'0 0.0
2017-Sep-17 09:23N 33°46' W 118°12'0 0.0
2017-Sep-17 09:00N 33°46' W 118°12'0 0.0
2017-Sep-17 08:30N 33°46' W 118°12'0 0.0
2017-Sep-17 07:56N 33°46' W 118°12'0 0.0
2017-Sep-17 07:21N 33°46' W 118°12'0 0.0
2017-Sep-17 06:56N 33°46' W 118°12'0 0.0
2017-Sep-17 06:29N 33°46' W 118°12'0 0.0
2017-Sep-17 05:46N 33°46' W 118°12'0 0.0
2017-Sep-17 05:28N 33°46' W 118°12'0 0.0
2017-Sep-17 04:59N 33°46' W 118°12'0 0.0
2017-Sep-17 04:27N 33°46' W 118°12'0 0.0
2017-Sep-17 04:00N 33°46' W 118°12'3 5.6
2017-Sep-17 03:30N 33°43' W 118°11'2417.1
2017-Sep-17 02:08N 33°21' W 118°19'0 0.0
2017-Sep-17 02:00N 33°21' W 118°19'1823.9
2017-Sep-17 01:14N 33°38' W 118°13'729.1
2017-Sep-17 01:00N 33°44' W 118°11'2 2.6
2017-Sep-17 00:24N 33°46' W 118°12'0 0.0
2017-Sep-17 00:00N 33°46' W 118°12'918.4
2017-Sep-16 23:30N 33°37' W 118°13'1715.2
2017-Sep-16 22:23N 33°21' W 118°19'410.4
2017-Sep-16 22:00N 33°25' W 118°18'1429.3
2017-Sep-16 21:30N 33°38' W 118°12'815.1
2017-Sep-16 21:00N 33°46' W 118°12'0 0.0
2017-Sep-16 20:30N 33°46' W 118°12'0 0.0
2017-Sep-16 20:00N 33°46' W 118°12'510.4
2017-Sep-16 19:30N 33°41' W 118°11'1931.4
2017-Sep-16 18:54N 33°23' W 118°18'2 2.2
2017-Sep-16 18:05N 33°21' W 118°19'223.6
2017-Sep-16 18:00N 33°23' W 118°19'1728.8
2017-Sep-16 17:26N 33°38' W 118°13'7 9.8
2017-Sep-16 16:40N 33°46' W 118°12'0 0.0
2017-Sep-16 16:28N 33°46' W 118°12'0 0.0
2017-Sep-16 15:58N 33°46' W 118°12'814.2
2017-Sep-16 15:25N 33°38' W 118°12'1731.4
2017-Sep-16 14:52N 33°22' W 118°18'2 4.2
2017-Sep-16 14:30N 33°21' W 118°19'610.7
2017-Sep-16 13:58N 33°26' W 118°18'1429.7
2017-Sep-16 13:30N 33°39' W 118°13'612.1
2017-Sep-16 12:59N 33°46' W 118°12'0 0.0
2017-Sep-16 12:21N 33°46' W 118°12'0 0.0
2017-Sep-16 11:51N 33°46' W 118°12'0 0.0
2017-Sep-16 11:29N 33°46' W 118°12'0 0.0
2017-Sep-16 10:54N 33°46' W 118°12'0 0.0
2017-Sep-16 10:14N 33°46' W 118°12'0 0.0
2017-Sep-16 09:54N 33°46' W 118°12'0 0.0
2017-Sep-16 09:30N 33°46' W 118°12'0 0.0
2017-Sep-16 08:54N 33°46' W 118°12'0 0.0
2017-Sep-16 07:52N 33°46' W 118°12'0 0.0
2017-Sep-16 07:29N 33°46' W 118°12'0 0.0
2017-Sep-16 07:00N 33°46' W 118°12'0 0.0
2017-Sep-16 06:29N 33°46' W 118°12'0 0.0
2017-Sep-16 05:58N 33°46' W 118°12'0 0.0
2017-Sep-16 05:29N 33°46' W 118°12'0 0.0
2017-Sep-16 05:00N 33°46' W 118°12'0 0.0
2017-Sep-16 04:30N 33°46' W 118°12'0 0.0
2017-Sep-16 04:00N 33°46' W 118°12'1 1.2
2017-Sep-16 03:30N 33°45' W 118°11'2427.0
2017-Sep-16 02:37N 33°22' W 118°19'2 2.2
2017-Sep-16 01:50N 33°21' W 118°19'1828.6
2017-Sep-16 01:13N 33°38' W 118°13'630.0
2017-Sep-16 01:00N 33°44' W 118°11'2 4.5
2017-Sep-16 00:30N 33°46' W 118°12'0 0.0
2017-Sep-15 23:59N 33°46' W 118°12'817.2
2017-Sep-15 23:30N 33°37' W 118°12'1529.8
2017-Sep-15 23:00N 33°24' W 118°18'3 3.6
2017-Sep-15 22:11N 33°21' W 118°19'1529.1
2017-Sep-15 21:41N 33°35' W 118°13'630.6
2017-Sep-15 21:30N 33°40' W 118°12'611.5
2017-Sep-15 21:00N 33°46' W 118°12'0 0.0
2017-Sep-15 20:30N 33°46' W 118°12'1 1.4
2017-Sep-15 19:59N 33°45' W 118°11'1224.6
2017-Sep-15 19:30N 33°33' W 118°13'1311.2
2017-Sep-15 18:17N 33°21' W 118°19'1426.5
2017-Sep-15 17:46N 33°34' W 118°13'828.1
2017-Sep-15 17:30N 33°41' W 118°11'5 9.5
2017-Sep-15 17:00N 33°46' W 118°12'0 0.0
2017-Sep-15 16:29N 33°46' W 118°12'0 0.0
2017-Sep-15 16:00N 33°46' W 118°12'714.1
2017-Sep-15 15:30N 33°39' W 118°11'1630.7
2017-Sep-15 14:58N 33°23' W 118°18'3 6.2
2017-Sep-15 14:29N 33°21' W 118°19'2 4.5
2017-Sep-15 14:00N 33°23' W 118°18'1530.7
2017-Sep-15 13:30N 33°37' W 118°13'915.1
2017-Sep-15 12:56N 33°46' W 118°12'0 0.0
2017-Sep-15 12:28N 33°46' W 118°12'0 0.0
2017-Sep-15 11:52N 33°46' W 118°12'0 0.0
2017-Sep-15 11:27N 33°46' W 118°12'0 0.0
2017-Sep-15 10:55N 33°46' W 118°12'0 0.0
2017-Sep-15 10:30N 33°46' W 118°12'0 0.0
2017-Sep-15 10:00N 33°46' W 118°12'0 0.0
2017-Sep-15 09:28N 33°46' W 118°12'0 0.0
2017-Sep-15 09:00N 33°46' W 118°12'0 0.0
2017-Sep-15 08:27N 33°46' W 118°12'0 0.0
2017-Sep-15 08:00N 33°46' W 118°12'0 0.0
2017-Sep-15 07:29N 33°46' W 118°12'0 0.0
2017-Sep-15 06:55N 33°46' W 118°12'0 0.0
2017-Sep-15 06:24N 33°46' W 118°12'0 0.0
2017-Sep-15 05:58N 33°46' W 118°12'0 0.0
2017-Sep-15 05:27N 33°46' W 118°12'0 0.0
2017-Sep-15 05:00N 33°46' W 118°12'0 0.0
2017-Sep-15 04:27N 33°46' W 118°12'0 0.0
2017-Sep-15 03:53N 33°46' W 118°12'2 4.8
2017-Sep-15 03:30N 33°44' W 118°11'1529.4
2017-Sep-15 03:00N 33°30' W 118°16'1018.9
2017-Sep-15 02:29N 33°21' W 118°19'0 0.1
2017-Sep-15 02:00N 33°21' W 118°19'1326.2
2017-Sep-15 01:29N 33°33' W 118°14'1222.2
2017-Sep-15 00:56N 33°46' W 118°12'0 0.8
2017-Sep-15 00:29N 33°46' W 118°12'0 0.0
2017-Sep-15 00:00N 33°46' W 118°12'918.5
2017-Sep-14 23:30N 33°37' W 118°13'1713.5
2017-Sep-14 22:16N 33°21' W 118°19'1524.1
2017-Sep-14 21:38N 33°35' W 118°14'428.7
2017-Sep-14 21:30N 33°39' W 118°13'714.3
2017-Sep-14 21:00N 33°46' W 118°12'0 0.0
2017-Sep-14 20:30N 33°46' W 118°12'0 0.0
2017-Sep-14 20:01N 33°46' W 118°12'2618.6
2017-Sep-14 18:37N 33°21' W 118°19'0 0.0
2017-Sep-14 18:11N 33°21' W 118°19'319.7
2017-Sep-14 18:00N 33°24' W 118°18'1529.7
2017-Sep-14 17:31N 33°38' W 118°13'815.4
2017-Sep-14 17:00N 33°46' W 118°12'0 0.2
2017-Sep-14 16:30N 33°46' W 118°12'0 0.0
2017-Sep-14 15:59N 33°46' W 118°12'611.5
2017-Sep-14 15:30N 33°40' W 118°11'1830.3
2017-Sep-14 14:55N 33°24' W 118°18'3 4.0
2017-Sep-14 14:08N 33°21' W 118°19'1 8.4
2017-Sep-14 14:00N 33°22' W 118°19'1630.3
2017-Sep-14 13:28N 33°37' W 118°13'914.2
2017-Sep-14 12:52N 33°46' W 118°12'0 0.0
2017-Sep-14 12:30N 33°46' W 118°12'0 0.0
2017-Sep-14 11:59N 33°46' W 118°12'0 0.0
2017-Sep-14 11:29N 33°46' W 118°12'0 0.0
2017-Sep-14 11:00N 33°46' W 118°12'0 0.0
2017-Sep-14 10:23N 33°46' W 118°12'1 0.1
2017-Sep-14 03:51N 33°45' W 118°11'823.1
2017-Sep-14 03:30N 33°37' W 118°12'  

Dump ship's entire track history